Tampa, Florida
Traffic Map
Current Weather Conditions
Tampa, Florida
Clear
Clear

Feels Like: 7°
Wind Chill: Ceiling: Unl
Heat Index: Visibility: 10mi
Dew Point: Wind: 7mph
Humidity: 77% Direction: 30° (NNE)
Pressure: 30.28in Gusts: 0mph
Raw Report DataKTPA 290553Z AUTO 03006KT 10SM CLR 09/05 A3028 RMK AO2 SLP255 T00890050 10128 20089 58008
Traffic Incident Summary
Active as of:
Severity:
Category:
InformationThere was an issue retrieving the traffic information for this location. Please try a different location or try again shortly.
Advertisements
Track Severe Weather on mobile